Time;durP1;ratioP1;P1;durP2;ratioP2;P2;SDS_P1;SDS_P2;PMS_P1;PMS_P2;Temp;Humidity;BMP_temperature;BMP_pressure;BME280_temperature;BME280_humidity;BME280_pressure;Samples;Min_cycle;Max_cycle;Signal;HPM_P1;HPM_P2
2021/12/25 00:00:14;;;;;;;;;33.00;27.00;;;;;3.85;100.00;98438.09;6307818;20;2861742;-45
2021/12/25 00:02:43;;;;;;;;;62.00;49.00;;;;;3.90;100.00;98441.38;6275941;20;2493134;-43
2021/12/25 00:05:14;;;;;;;;;45.50;39.50;;;;;3.74;100.00;98453.78;6279560;20;2851304;-42
2021/12/25 00:07:43;;;;;;;;;52.00;42.00;;;;;3.82;100.00;98445.38;6280760;20;2871082;-45
2021/12/25 00:10:14;;;;;;;;;58.33;42.67;;;;;3.91;100.00;98444.88;6310369;20;2870165;-42
2021/12/25 00:12:42;;;;;;;;;43.50;39.50;;;;;3.94;100.00;98442.06;6309983;20;2845091;-44
2021/12/25 00:15:12;;;;;;;;;45.67;40.33;;;;;3.93;100.00;98437.69;6277947;20;2853394;-42
2021/12/25 00:17:41;;;;;;;;;59.50;47.00;;;;;3.93;100.00;98443.84;6310256;20;2859653;-41
2021/12/25 00:20:11;;;;;;;;;66.00;41.67;;;;;3.91;100.00;98431.59;6278797;20;3622307;-42
2021/12/25 00:22:40;;;;;;;;;63.00;49.00;;;;;4.12;100.00;98435.72;6307686;20;2877357;-42
2021/12/25 00:25:10;;;;;;;;;53.50;42.50;;;;;3.93;100.00;98451.81;6308767;20;2866928;-43
2021/12/25 00:30:25;;;;;;;;;55.50;42.00;;;;;4.04;100.00;98437.94;6277375;20;2857563;-45
2021/12/25 00:35:25;;;;;;;;;57.00;40.00;;;;;4.21;100.00;98444.13;6309950;20;2880471;-43
2021/12/25 00:37:55;;;;;;;;;51.00;41.50;;;;;4.36;100.00;98453.91;6310285;20;2839307;-43
2021/12/25 00:40:25;;;;;;;;;45.50;40.00;;;;;4.30;100.00;98454.25;6280446;20;2859657;-45
2021/12/25 00:42:53;;;;;;;;;58.00;41.00;;;;;4.40;100.00;98460.78;6282327;20;2863847;-44
2021/12/25 00:45:23;;;;;;;;;48.00;39.67;;;;;4.46;100.00;98457.75;6280085;20;2858745;-43
2021/12/25 00:47:53;;;;;;;;;50.33;36.00;;;;;4.32;100.00;98455.88;6316148;20;3640909;-43
2021/12/25 00:50:22;;;;;;;;;46.00;39.33;;;;;4.50;100.00;98456.66;6316501;20;2864950;-42
2021/12/25 00:52:51;;;;;;;;;47.00;39.00;;;;;4.51;100.00;98458.34;6316263;20;3628381;-42
2021/12/25 00:55:20;;;;;;;;;47.00;40.33;;;;;4.67;100.00;98457.50;6282868;20;2862896;-42
2021/12/25 00:57:49;;;;;;;;;50.67;38.67;;;;;4.52;100.00;98462.72;6318634;20;3628381;-41
2021/12/25 01:00:19;;;;;;;;;47.00;40.50;;;;;4.44;100.00;98462.28;6283127;20;2850714;-43
2021/12/25 01:02:49;;;;;;;;;40.67;34.33;;;;;4.72;100.00;98471.38;6284303;20;2866015;-43
2021/12/25 01:05:19;;;;;;;;;51.50;40.00;;;;;4.50;100.00;98472.59;6314559;20;2872759;-43
2021/12/25 01:07:49;;;;;;;;;41.67;38.33;;;;;4.84;100.00;98466.22;6286017;20;2857666;-43
2021/12/25 01:10:21;;;;;;;;;45.67;38.67;;;;;4.85;100.00;98461.75;6314492;20;3613918;-45
2021/12/25 01:13:13;;;;;;;;;40.33;34.67;;;;;5.06;100.00;98465.81;6313503;20;2856530;-43
2021/12/25 01:48:27;;;;;;;;;37.00;33.00;;;;;5.01;100.00;98478.53;6284273;20;3601238;-42
2021/12/25 01:50:56;;;;;;;;;28.00;28.00;;;;;5.28;100.00;98480.50;6312044;20;2833571;-42
2021/12/25 01:53:24;;;;;;;;;36.50;32.00;;;;;5.42;100.00;98487.66;6283590;20;2848188;-43
2021/12/25 01:55:54;;;;;;;;;36.50;27.50;;;;;5.41;100.00;98489.47;6281509;20;2852372;-43
2021/12/25 01:58:23;;;;;;;;;37.50;26.50;;;;;5.56;100.00;98489.50;6282257;20;2871299;-42
2021/12/25 02:00:57;;;;;;;;;35.00;30.50;;;;;5.65;100.00;98489.78;6281730;20;2847373;-43
2021/12/25 02:03:33;;;;;;;;;28.50;22.50;;;;;5.60;100.00;98491.00;6281557;20;2500368;-43
2021/12/25 02:06:10;;;;;;;;;28.00;26.00;;;;;5.53;100.00;98492.31;6282720;20;2835794;-42
2021/12/25 02:08:43;;;;;;;;;34.00;29.00;;;;;5.63;100.00;98496.16;6283266;20;2850273;-42
2021/12/25 02:11:13;;;;;;;;;33.00;28.00;;;;;5.61;100.00;98496.25;6310887;20;2858620;-43
2021/12/25 02:13:43;;;;;;;;;34.67;30.00;;;;;5.61;100.00;98498.03;6312917;20;3590908;-43
2021/12/25 02:16:15;;;;;;;;;36.50;32.50;;;;;5.66;100.00;98495.97;6274415;20;2500293;-43
2021/12/25 02:19:11;;;;;;;;;31.00;26.00;;;;;5.72;100.00;98507.09;6283149;20;2866905;-42
2021/12/25 02:21:37;;;;;;;;;28.50;22.50;;;;;5.69;100.00;98506.44;6311881;20;2850261;-43
2021/12/25 02:24:14;;;;;;;;;39.50;30.50;;;;;5.55;100.00;98493.09;6282824;20;2857674;-43
2021/12/25 02:26:45;;;;;;;;;32.00;29.50;;;;;5.49;100.00;98508.50;6280793;20;2853433;-43
2021/12/25 02:29:14;;;;;;;;;31.00;29.00;;;;;5.64;100.00;98503.22;6280747;20;2854437;-46
2021/12/25 02:31:44;;;;;;;;;34.00;31.00;;;;;5.66;100.00;98504.81;6278090;20;2862841;-44
2021/12/25 02:34:14;;;;;;;;;30.50;28.00;;;;;5.58;100.00;98491.13;6311629;20;2849236;-42
2021/12/25 02:36:43;;;;;;;;;30.00;28.50;;;;;5.41;100.00;98500.09;6280757;20;2845039;-42
2021/12/25 02:39:12;;;;;;;;;31.00;26.50;;;;;5.44;100.00;98502.59;6281281;20;2849336;-43
2021/12/25 02:41:43;;;;;;;;;35.00;31.50;;;;;5.46;100.00;98500.69;6280360;20;2850269;-43
2021/12/25 02:44:13;;;;;;;;;32.50;30.50;;;;;5.57;100.00;98507.19;6281728;20;2838811;-43
2021/12/25 02:46:44;;;;;;;;;40.67;31.33;;;;;5.61;100.00;98506.91;6283058;20;2872184;-44
2021/12/25 02:49:13;;;;;;;;;35.00;30.00;;;;;5.64;100.00;98492.56;6312625;20;2858724;-42
2021/12/25 02:51:45;;;;;;;;;42.67;36.67;;;;;5.56;100.00;98497.50;6309374;20;3624314;-43
2021/12/25 02:54:15;;;;;;;;;27.50;26.00;;;;;5.46;100.00;98500.69;6310952;20;2850260;-44
2021/12/25 02:56:45;;;;;;;;;36.33;33.00;;;;;5.46;100.00;98490.03;6280401;20;2858717;-42
2021/12/25 02:59:15;;;;;;;;;28.67;28.67;;;;;5.39;100.00;98488.69;6312395;20;2858623;-44
2021/12/25 03:02:15;;;;;;;;;35.33;31.33;;;;;5.41;100.00;98484.13;6312922;20;3592003;-42
2021/12/25 03:04:49;;;;;;;;;32.50;31.00;;;;;5.28;100.00;98472.50;6279700;20;2840890;-43
2021/12/25 03:07:18;;;;;;;;;38.33;32.33;;;;;5.35;100.00;98475.69;6279636;20;2871245;-42
2021/12/25 03:09:48;;;;;;;;;34.00;34.00;;;;;5.36;100.00;98475.56;6305974;20;2851405;-43
2021/12/25 03:12:26;;;;;;;;;45.33;38.00;;;;;5.31;100.00;98480.31;6278498;20;3610636;-43
2021/12/25 03:15:14;;;;;;;;;44.00;34.00;;;;;5.33;100.00;98483.75;6310971;20;3630420;-44
2021/12/25 03:17:46;;;;;;;;;37.00;34.00;;;;;5.36;100.00;98480.91;6278352;20;2866969;-43
2021/12/25 03:20:14;;;;;;;;;38.67;34.67;;;;;5.24;100.00;98479.84;6312458;20;3602451;-42
2021/12/25 03:22:44;;;;;;;;;42.67;33.00;;;;;5.33;100.00;98485.56;6280979;20;3628346;-43
2021/12/25 03:25:17;;;;;;;;;39.00;35.00;;;;;5.27;100.00;98495.63;6312968;20;3616933;-43
2021/12/25 03:27:48;;;;;;;;;43.67;37.33;;;;;5.36;100.00;98504.84;6313845;20;3612755;-42
2021/12/25 03:30:21;;;;;;;;;37.00;35.50;;;;;5.13;100.00;98492.88;6278607;20;2855555;-42
2021/12/25 03:32:50;;;;;;;;;41.00;36.33;;;;;5.13;100.00;98476.94;6278605;20;2855488;-42
2021/12/25 03:35:20;;;;;;;;;35.67;30.67;;;;;4.96;100.00;98469.94;6309391;20;2862915;-42
2021/12/25 03:37:49;;;;;;;;;39.00;32.67;;;;;4.97;100.00;98476.97;6315331;20;3593955;-41
2021/12/25 03:40:17;;;;;;;;;31.00;27.00;;;;;4.76;100.00;98478.22;6279590;20;2840869;-43
2021/12/25 03:42:47;;;;;;;;;39.33;34.67;;;;;4.47;100.00;98472.75;6280921;20;2857685;-42
2021/12/25 03:45:16;;;;;;;;;38.67;34.33;;;;;4.48;100.00;98474.47;6313028;20;2865947;-42
2021/12/25 03:47:48;;;;;;;;;41.00;35.67;;;;;4.44;100.00;98483.56;6310992;20;2858597;-43
2021/12/25 03:53:10;;;;;;;;;71.33;49.00;;;;;4.22;100.00;98494.53;6280541;20;3638799;-42
2021/12/25 03:58:31;;;;;;;;;103.25;76.50;;;;;4.07;100.00;98498.88;6310969;20;3689828;-43
2021/12/25 04:01:24;;;;;;;;;67.33;52.67;;;;;4.14;100.00;98502.91;6277711;20;2878485;-42
2021/12/25 04:07:02;;;;;;;;;79.67;55.67;;;;;3.68;100.00;98515.13;6307684;20;3647152;-42
2021/12/25 04:09:34;;;;;;;;;79.67;60.00;;;;;3.59;100.00;98528.88;6313593;20;3614935;-43
2021/12/25 04:12:11;;;;;;;;;62.33;45.00;;;;;3.81;100.00;98536.56;6311812;20;3623181;-43
2021/12/25 04:14:41;;;;;;;;;39.50;35.50;;;;;4.00;100.00;98537.31;6311945;20;2854414;-42
2021/12/25 04:17:10;;;;;;;;;34.00;33.33;;;;;4.42;100.00;98537.72;6285938;20;2858633;-44
2021/12/25 04:19:40;;;;;;;;;17.80;10.20;;;;;4.37;100.00;98535.31;6339427;20;2808587;-42
2021/12/25 04:22:16;;;;;;;;;39.67;32.67;;;;;4.40;100.00;98541.34;6285605;20;2855514;-42
2021/12/25 04:24:48;;;;;;;;;41.67;36.00;;;;;4.44;100.00;98542.03;6317151;20;2876472;-45
2021/12/25 04:27:17;;;;;;;;;30.00;30.00;;;;;4.65;100.00;98547.09;6310143;20;2500411;-43
2021/12/25 04:30:00;;;;;;;;;26.33;24.67;;;;;4.54;100.00;98543.22;6283301;20;3577830;-42
2021/12/25 05:02:56;;;;;;;;;30.00;25.00;;;;;4.61;100.00;98544.63;6283766;20;2844153;-44
2021/12/25 05:05:25;;;;;;;;;30.00;27.00;;;;;4.79;100.00;98544.50;6285228;20;2842958;-43
2021/12/25 05:07:53;;;;;;;;;33.00;28.00;;;;;4.72;100.00;98548.47;6283036;20;2500298;-42
2021/12/25 05:10:22;;;;;;;;;35.00;27.50;;;;;4.70;100.00;98535.25;6284300;20;2849369;-41
2021/12/25 05:12:50;;;;;;;;;27.00;26.00;;;;;4.72;100.00;98545.81;6281068;20;2500228;-43
2021/12/25 05:15:19;;;;;;;;;39.33;34.33;;;;;4.62;100.00;98543.66;6282800;20;3608721;-43
2021/12/25 05:17:48;;;;;;;;;36.00;33.67;;;;;4.87;100.00;98555.59;6317465;20;3613762;-43
2021/12/25 05:20:18;;;;;;;;;35.00;31.50;;;;;4.81;100.00;98548.78;6283943;20;2847112;-44
2021/12/25 05:22:48;;;;;;;;;39.00;32.67;;;;;4.83;100.00;98549.56;6284276;20;2859674;-43
2021/12/25 05:25:16;;;;;;;;;30.00;29.00;;;;;4.78;100.00;98550.78;6314722;20;2852378;-43
2021/12/25 05:27:46;;;;;;;;;34.67;27.67;;;;;4.78;100.00;98550.78;6283397;20;2860796;-43
2021/12/25 05:30:17;;;;;;;;;31.00;25.00;;;;;4.69;100.00;98540.69;6313195;20;2860816;-43
2021/12/25 05:32:47;;;;;;;;;34.33;26.67;;;;;4.60;100.00;98553.50;6282558;20;2861739;-43
2021/12/25 05:35:16;;;;;;;;;33.50;24.00;;;;;4.51;100.00;98553.19;6314368;20;2856529;-44
2021/12/25 05:37:45;;;;;;;;;34.00;29.00;;;;;4.67;100.00;98542.56;6283850;20;2854438;-43
2021/12/25 05:40:14;;;;;;;;;33.00;28.00;;;;;4.68;100.00;98550.44;6282448;20;2849244;-42
2021/12/25 05:42:44;;;;;;;;;46.33;34.67;;;;;4.54;100.00;98559.19;6281949;20;3616042;-43
2021/12/25 05:45:13;;;;;;;;;36.67;30.33;;;;;4.70;100.00;98547.69;6311192;20;2855623;-43
2021/12/25 05:47:42;;;;;;;;;27.33;24.67;;;;;4.11;100.00;98555.34;6313450;20;3574208;-42
2021/12/25 05:50:11;;;;;;;;;35.00;31.00;;;;;4.27;100.00;98555.38;6282686;20;2862836;-42
2021/12/25 05:52:40;;;;;;;;;31.50;28.50;;;;;4.22;100.00;98555.63;6281014;20;2846498;-43
2021/12/25 05:55:09;;;;;;;;;26.33;23.00;;;;;4.35;100.00;98555.81;6280478;20;3573227;-44
2021/12/25 05:57:37;;;;;;;;;33.50;26.00;;;;;4.27;100.00;98560.69;6281044;20;2508743;-43
2021/12/25 06:00:10;;;;;;;;;30.00;26.00;;;;;4.16;100.00;98554.16;6281833;20;2846238;-42
2021/12/25 06:02:38;;;;;;;;;24.50;24.00;;;;;4.00;100.00;98549.72;6279455;20;2500358;-45
2021/12/25 06:05:07;;;;;;;;;28.50;25.50;;;;;4.05;100.00;98553.84;6283558;20;2850330;-43
2021/12/25 06:07:36;;;;;;;;;32.50;28.00;;;;;4.07;100.00;98549.31;6282360;20;2848198;-43
2021/12/25 06:10:09;;;;;;;;;26.50;22.00;;;;;3.96;100.00;98547.25;6281611;20;2839862;-43
2021/12/25 06:12:41;;;;;;;;;31.00;24.33;;;;;3.89;100.00;98560.94;6283281;20;3595019;-43
2021/12/25 06:15:13;;;;;;;;;25.00;24.50;;;;;4.03;100.00;98558.41;6281104;20;2848177;-47
2021/12/25 06:17:42;;;;;;;;;36.50;30.50;;;;;4.23;100.00;98560.00;6283551;20;2848179;-43
2021/12/25 06:20:12;;;;;;;;;32.50;29.00;;;;;4.17;100.00;98561.19;6277618;20;2500354;-43
2021/12/25 06:22:42;;;;;;;;;34.67;31.33;;;;;3.67;100.00;98561.19;6281658;20;2854443;-43
2021/12/25 06:25:11;;;;;;;;;24.00;22.00;;;;;3.54;100.00;98566.28;6313755;20;2500269;-43
2021/12/25 06:27:39;;;;;;;;;29.50;24.00;;;;;3.65;100.00;98574.53;6279075;20;2500273;-43
2021/12/25 06:30:09;;;;;;;;;28.50;27.00;;;;;3.61;100.00;98567.69;6282375;20;2852330;-43
2021/12/25 06:32:38;;;;;;;;;34.00;33.00;;;;;3.70;100.00;98585.78;6281408;20;2849406;-42
2021/12/25 06:35:08;;;;;;;;;40.00;35.00;;;;;3.45;100.00;98578.22;6282260;20;2858652;-43
2021/12/25 06:37:40;;;;;;;;;35.00;28.50;;;;;3.29;100.00;98579.91;6279119;20;2848584;-43
2021/12/25 06:40:11;;;;;;;;;33.00;30.50;;;;;3.29;100.00;98585.19;6282512;20;2854465;-43
2021/12/25 06:42:40;;;;;;;;;40.33;34.67;;;;;3.26;100.00;98590.66;6282763;20;2865938;-43
2021/12/25 06:45:10;;;;;;;;;34.00;34.00;;;;;3.33;100.00;98594.75;6313183;20;2860757;-44
2021/12/25 06:47:40;;;;;;;;;55.67;42.00;;;;;3.41;100.00;98591.72;6312524;20;2862893;-42
2021/12/25 06:50:10;;;;;;;;;35.00;35.00;;;;;3.36;100.00;98605.19;6313015;20;2854536;-42
2021/12/25 06:52:41;;;;;;;;;47.00;39.00;;;;;3.37;100.00;98609.59;6282228;20;2854409;-42
2021/12/25 06:55:11;;;;;;;;;55.67;41.33;;;;;3.73;100.00;98613.97;6280863;20;3638092;-43
2021/12/25 06:57:48;;;;;;;;;50.67;40.00;;;;;3.39;100.00;98625.41;6313875;20;2857612;-42
2021/12/25 07:00:18;;;;;;;;;57.33;44.00;;;;;3.44;100.00;98624.25;6313652;20;2867988;-42
2021/12/25 07:02:48;;;;;;;;;51.67;40.67;;;;;3.74;100.00;98621.84;6312501;20;2863880;-43
2021/12/25 07:05:18;;;;;;;;;41.00;35.00;;;;;3.99;100.00;98619.72;6311772;20;2864050;-44
2021/12/25 07:07:52;;;;;;;;;46.33;37.33;;;;;4.11;100.00;98627.94;6312724;20;2881597;-43
2021/12/25 07:10:22;;;;;;;;;49.33;38.33;;;;;4.06;100.00;98627.31;6313568;20;3628380;-43
2021/12/25 07:12:54;;;;;;;;;59.50;47.50;;;;;4.05;100.00;98622.91;6280014;20;2860667;-43
2021/12/25 07:15:23;;;;;;;;;51.33;44.33;;;;;4.26;100.00;98633.34;6280115;20;2861858;-42
2021/12/25 07:17:52;;;;;;;;;61.33;42.67;;;;;4.18;100.00;98631.09;6316305;20;3629408;-45
2021/12/25 07:20:21;;;;;;;;;35.50;30.00;;;;;4.36;100.00;98637.25;6279157;20;2838816;-44
2021/12/25 07:22:49;;;;;;;;;38.50;31.50;;;;;4.35;100.00;98639.06;6282630;20;2848173;-44
2021/12/25 07:25:18;;;;;;;;;33.00;26.50;;;;;4.54;100.00;98638.91;6280042;20;2852421;-43
2021/12/25 07:27:47;;;;;;;;;33.00;24.00;;;;;4.64;100.00;98631.31;6281976;20;2866940;-42
2021/12/25 07:30:16;;;;;;;;;29.00;27.50;;;;;4.75;100.00;98641.38;6281210;20;2848220;-44
2021/12/25 07:32:45;;;;;;;;;34.00;32.50;;;;;4.64;100.00;98638.44;6282241;20;2857567;-43
2021/12/25 07:35:14;;;;;;;;;33.00;30.50;;;;;4.76;100.00;98643.06;6280544;20;2843985;-45
2021/12/25 07:37:43;;;;;;;;;37.00;29.67;;;;;4.83;100.00;98647.13;6281716;20;2862768;-42
2021/12/25 07:40:13;;;;;;;;;39.33;36.33;;;;;4.88;100.00;98645.06;6314770;20;3617006;-43
2021/12/25 07:42:42;;;;;;;;;29.50;27.50;;;;;4.84;100.00;98639.06;6281034;20;2846227;-43
2021/12/25 07:45:12;;;;;;;;;32.50;29.00;;;;;4.98;100.00;98638.28;6280430;20;2854442;-43
2021/12/25 07:47:47;;;;;;;;;27.50;26.00;;;;;4.95;100.00;98643.78;6280070;20;2851496;-42
2021/12/25 07:50:16;;;;;;;;;32.50;26.50;;;;;5.09;100.00;98644.81;6280408;20;2500436;-43
2021/12/25 07:52:44;;;;;;;;;29.00;28.00;;;;;5.19;100.00;98646.88;6283328;20;2850372;-42
2021/12/25 07:55:14;;;;;;;;;37.67;32.33;;;;;5.24;100.00;98658.13;6284263;20;3605449;-43
2021/12/25 07:57:45;;;;;;;;;40.00;27.67;;;;;5.30;100.00;98650.75;6316020;20;3608562;-42
2021/12/25 08:00:16;;;;;;;;;27.00;24.00;;;;;5.32;100.00;98644.38;6316333;20;2849242;-43
2021/12/25 08:02:47;;;;;;;;;22.20;14.80;;;;;5.39;100.00;98651.06;6308737;20;2810665;-44
2021/12/25 08:05:16;;;;;;;;;31.00;25.50;;;;;5.39;100.00;98652.84;6286881;20;2852454;-43
2021/12/25 08:07:45;;;;;;;;;26.00;22.50;;;;;5.60;100.00;98648.97;6286835;20;2833784;-42
2021/12/25 08:10:16;;;;;;;;;30.00;24.50;;;;;5.64;100.00;98652.31;6285583;20;2852357;-43
2021/12/25 08:12:56;;;;;;;;;30.00;23.00;;;;;5.71;100.00;98653.66;6284197;20;2841024;-42
2021/12/25 08:15:29;;;;;;;;;29.00;26.00;;;;;5.85;100.00;98650.22;6285150;20;2587761;-43
2021/12/25 08:18:00;;;;;;;;;37.00;35.33;;;;;5.83;100.00;98649.44;6285554;20;2869080;-43
2021/12/25 08:20:34;;;;;;;;;46.67;37.00;;;;;5.98;100.00;98642.34;6316742;20;3603374;-43
2021/12/25 08:23:04;;;;;;;;;47.00;39.00;;;;;6.00;100.00;98648.44;6283921;20;3607522;-45
2021/12/25 08:25:33;;;;;;;;;54.00;43.00;;;;;6.04;100.00;98642.84;6317044;20;3603350;-44
2021/12/25 08:28:03;;;;;;;;;66.00;50.67;;;;;5.82;100.00;98645.91;6283294;20;2872373;-43
2021/12/25 08:30:32;;;;;;;;;62.67;51.00;;;;;5.80;100.00;98647.81;6313896;20;2869064;-43
2021/12/25 08:33:03;;;;;;;;;62.33;48.67;;;;;5.63;100.00;98646.13;6313877;20;3626282;-43
2021/12/25 08:35:33;;;;;;;;;57.00;46.00;;;;;5.64;100.00;98641.66;6315286;20;2848173;-43
2021/12/25 08:38:03;;;;;;;;;49.00;40.00;;;;;5.64;100.00;98647.00;6282247;20;3616932;-44
2021/12/25 08:40:33;;;;;;;;;47.33;39.33;;;;;5.67;100.00;98638.81;6315480;20;3620128;-46
2021/12/25 08:43:04;;;;;;;;;50.00;39.33;;;;;5.60;100.00;98640.13;6316731;20;2870227;-43
2021/12/25 08:45:49;;;;;;;;;56.00;45.00;;;;;5.73;100.00;98635.78;6315803;20;2848269;-45
2021/12/25 08:48:24;;;;;;;;;66.00;49.00;;;;;5.69;100.00;98628.94;6283244;20;3633592;-42
2021/12/25 08:50:58;;;;;;;;;71.00;54.67;;;;;5.96;100.00;98633.63;6313876;20;3641918;-42
2021/12/25 08:53:28;;;;;;;;;68.33;52.67;;;;;5.98;100.00;98642.34;6314978;20;2870610;-43
2021/12/25 08:55:58;;;;;;;;;75.33;61.00;;;;;6.30;100.00;98635.97;6311613;20;2873274;-43
2021/12/25 08:58:32;;;;;;;;;70.33;57.00;;;;;6.08;100.00;98639.06;6316437;20;3623189;-42
2021/12/25 09:01:07;;;;;;;;;59.33;46.33;;;;;6.17;100.00;98645.66;6312944;20;2867046;-42
2021/12/25 09:03:37;;;;;;;;;55.33;43.33;;;;;6.13;100.00;98633.44;6314138;20;3617020;-42
2021/12/25 09:06:06;;;;;;;;;49.33;39.67;;;;;6.04;100.00;98631.34;6315752;20;2877436;-44
2021/12/25 09:08:36;;;;;;;;;53.00;42.00;;;;;6.09;100.00;98626.59;6313871;20;2877423;-42
2021/12/25 09:11:05;;;;;;;;;56.00;44.50;;;;;6.18;100.00;98628.69;6314179;20;2856528;-45
2021/12/25 09:13:34;;;;;;;;;70.00;52.00;;;;;6.14;100.00;98628.03;6283906;20;3653377;-43
2021/12/25 09:16:05;;;;;;;;;75.00;59.00;;;;;6.23;100.00;98625.75;6312393;20;3608605;-44
2021/12/25 09:18:33;;;;;;;;;53.50;44.00;;;;;6.21;100.00;98620.50;6316807;20;2882653;-43
2021/12/25 09:21:02;;;;;;;;;58.00;46.50;;;;;6.21;100.00;98614.31;6283816;20;2858993;-43
2021/12/25 09:23:34;;;;;;;;;57.33;46.33;;;;;6.40;100.00;98614.03;6284155;20;2851475;-44
2021/12/25 09:26:03;;;;;;;;;74.00;58.00;;;;;6.52;100.00;98618.63;6315043;20;3620013;-43
2021/12/25 09:28:33;;;;;;;;;51.67;41.67;;;;;6.66;100.00;98613.31;6314482;20;2861779;-48
2021/12/25 09:31:02;;;;;;;;;45.50;40.50;;;;;6.64;100.00;98609.88;6312413;20;2854418;-44
2021/12/25 09:33:33;;;;;;;;;56.00;39.00;;;;;6.75;100.00;98603.84;6283215;20;2869090;-47
2021/12/25 09:36:03;;;;;;;;;41.67;36.67;;;;;6.80;100.00;98604.44;6310537;20;2858688;-46
2021/12/25 09:38:33;;;;;;;;;47.00;38.67;;;;;6.82;100.00;98598.03;6316161;20;3603365;-44
2021/12/25 09:41:06;;;;;;;;;47.50;40.00;;;;;7.02;100.00;98611.91;6278387;20;2871206;-45
2021/12/25 09:43:36;;;;;;;;;81.67;63.33;;;;;7.15;100.00;98607.47;6283472;20;3648266;-44
2021/12/25 09:46:07;;;;;;;;;55.50;45.50;;;;;7.26;100.00;98594.28;6315288;20;2851415;-47
2021/12/25 09:48:37;;;;;;;;;50.33;40.67;;;;;7.14;100.00;98578.25;6283476;20;2868984;-44
2021/12/25 09:51:09;;;;;;;;;57.00;44.00;;;;;7.38;100.00;98594.47;6312217;20;3607572;-45
2021/12/25 09:53:38;;;;;;;;;51.50;43.50;;;;;7.35;100.00;98597.34;6314214;20;2867984;-49
2021/12/25 09:56:08;;;;;;;;;40.33;31.33;;;;;7.14;100.00;98595.09;6282649;20;2872394;-45
2021/12/25 09:58:38;;;;;;;;;51.00;40.00;;;;;7.21;100.00;98588.41;6317079;20;3609628;-46
2021/12/25 10:01:07;;;;;;;;;38.67;34.67;;;;;7.29;100.00;98582.56;6282944;20;2855574;-44
2021/12/25 10:03:45;;;;;;;;;49.33;39.00;;;;;7.45;100.00;98579.72;6318452;20;3627350;-44
2021/12/25 10:06:41;;;;;;;;;52.33;42.00;;;;;7.42;100.00;98579.94;6282951;20;2854548;-45
2021/12/25 10:09:25;;;;;;;;;40.00;35.00;;;;;7.56;100.00;98585.22;6316962;20;2864956;-43
2021/12/25 10:12:11;;;;;;;;;41.00;35.67;;;;;7.58;100.00;98602.00;6315461;20;2864912;-44
2021/12/25 10:14:51;;;;;;;;;47.00;39.00;;;;;7.66;100.00;98590.78;6318662;20;3624244;-44
2021/12/25 10:17:28;;;;;;;;;40.67;35.67;;;;;7.80;100.00;98592.53;6288223;20;3590067;-44
2021/12/25 10:20:08;;;;;;;;;34.33;34.33;;;;;7.78;100.00;98581.09;6286962;20;3608615;-44
2021/12/25 10:23:16;;;;;;;;;42.00;36.00;;;;;7.86;100.00;98579.59;6323185;20;3598207;-44
2021/12/25 10:25:59;;;;;;;;;48.00;39.00;;;;;8.00;100.00;98577.81;6287565;20;3601247;-44
2021/12/25 10:28:36;;;;;;;;;49.67;39.00;;;;;8.06;100.00;98599.63;6320387;20;3628401;-45
2021/12/25 10:31:16;;;;;;;;;79.25;59.00;;;;;7.93;100.00;98598.75;6286881;20;3649270;-45
2021/12/25 10:33:53;;;;;;;;;78.67;58.33;;;;;7.98;100.00;98603.78;6315884;20;3645089;-44
2021/12/25 10:36:37;;;;;;;;;73.33;58.00;;;;;8.10;100.00;98601.13;6283818;20;3627330;-44
2021/12/25 10:39:21;;;;;;;;;64.33;49.00;;;;;8.21;100.00;98600.38;6314920;20;3617945;-44
2021/12/25 10:42:12;;;;;;;;;65.33;49.00;;;;;8.16;100.00;98596.31;6316008;20;3640972;-44
2021/12/25 10:44:47;;;;;;;;;43.00;38.00;;;;;8.11;100.00;98588.63;6317396;20;2864957;-44
2021/12/25 10:47:28;;;;;;;;;53.00;38.00;;;;;8.09;99.48;98596.75;6315455;20;3633010;-45
2021/12/25 10:50:11;;;;;;;;;38.33;33.33;;;;;7.97;100.00;98588.72;6318117;20;3600270;-44
2021/12/25 10:52:47;;;;;;;;;41.00;35.00;;;;;8.02;100.00;98594.59;6285369;20;2855579;-44
2021/12/25 10:55:22;;;;;;;;;41.00;35.50;;;;;8.10;98.76;98590.41;6314907;20;2853484;-44
2021/12/25 10:57:57;;;;;;;;;35.33;30.00;;;;;8.13;97.47;98590.22;6287041;20;3606489;-44
2021/12/25 11:00:34;;;;;;;;;59.33;45.00;;;;;8.17;97.58;98573.97;6282785;20;2866202;-45
2021/12/25 11:03:09;;;;;;;;;39.67;34.33;;;;;8.17;96.75;98557.94;6317354;20;2874508;-44
2021/12/25 11:05:48;;;;;;;;;57.33;40.00;;;;;8.33;96.46;98558.56;6317472;20;3628393;-44
2021/12/25 11:08:24;;;;;;;;;58.33;43.67;;;;;8.35;96.45;98567.34;6315398;20;3636695;-46
2021/12/25 11:11:07;;;;;;;;;35.00;31.00;;;;;8.26;96.04;98562.63;6316692;20;3605444;-44
2021/12/25 11:13:55;;;;;;;;;34.33;32.00;;;;;8.22;97.56;98559.31;6284530;20;3601262;-44
2021/12/25 11:16:31;;;;;;;;;38.00;35.00;;;;;8.24;97.59;98559.19;6288559;20;3609600;-44
2021/12/25 11:19:15;;;;;;;;;37.67;33.33;;;;;8.33;97.00;98555.88;6281504;20;3610623;-44
2021/12/25 11:21:44;;;;;;;;;46.67;37.67;;;;;8.32;97.19;98557.72;6319563;20;3613751;-44
2021/12/25 11:24:19;;;;;;;;;45.00;38.00;;;;;8.33;97.68;98559.41;6284683;20;2857784;-43
2021/12/25 11:26:59;;;;;;;;;43.33;35.00;;;;;8.40;97.48;98553.66;6315029;20;3598279;-44
2021/12/25 11:29:34;;;;;;;;;53.33;41.67;;;;;8.43;97.44;98554.31;6320861;20;3602287;-43
2021/12/25 11:32:08;;;;;;;;;49.50;41.50;;;;;8.43;97.29;98553.47;6283416;20;2850227;-44
2021/12/25 11:34:38;;;;;;;;;52.67;41.00;;;;;8.81;96.63;98545.34;6285111;20;2868047;-44
2021/12/25 11:37:08;;;;;;;;;66.67;49.00;;;;;8.80;97.59;98540.97;6315623;20;3628492;-45
2021/12/25 11:39:44;;;;;;;;;54.00;45.67;;;;;8.52;99.56;98542.94;6310097;20;2867097;-44
2021/12/25 11:42:13;;;;;;;;;55.00;43.50;;;;;8.30;100.00;98540.91;6312927;20;2851318;-45
2021/12/25 11:44:51;;;;;;;;;67.00;54.00;;;;;8.41;100.00;98545.53;6281498;20;2863817;-44
2021/12/25 11:47:50;;;;;;;;;42.33;35.33;;;;;8.30;100.00;98548.09;6287155;20;3601425;-44
2021/12/25 11:50:41;;;;;;;;;46.50;38.50;;;;;8.34;100.00;98549.56;6281198;20;2842987;-44
2021/12/25 11:58:48;;;;;;;;;35.00;26.50;;;;;8.72;99.31;98554.91;6280440;20;3504499;-44
2021/12/25 12:01:28;;;;;;;;;40.00;31.33;;;;;8.06;100.00;98556.88;6312422;20;3623165;-44
2021/12/25 12:04:17;;;;;;;;;33.00;26.00;;;;;8.32;100.00;98562.19;6313924;20;2853397;-47
2021/12/25 12:06:46;;;;;;;;;41.67;38.33;;;;;8.07;100.00;98558.56;6283534;20;3616889;-46
2021/12/25 12:09:25;;;;;;;;;41.33;35.67;;;;;7.82;100.00;98548.72;6316007;20;3605429;-44
2021/12/25 12:12:04;;;;;;;;;29.00;29.00;;;;;7.65;100.00;98552.53;6282161;20;2854596;-45
2021/12/25 12:14:34;;;;;;;;;41.67;35.00;;;;;7.79;100.00;98545.38;6313088;20;3613751;-44
2021/12/25 12:17:06;;;;;;;;;46.00;37.67;;;;;7.86;100.00;98544.00;6316697;20;3609590;-44
2021/12/25 12:19:41;;;;;;;;;56.67;44.33;;;;;7.78;100.00;98551.72;6282945;20;2862860;-46
2021/12/25 12:22:16;;;;;;;;;49.00;41.67;;;;;7.69;100.00;98548.69;6313400;20;3604409;-44
2021/12/25 12:25:19;;;;;;;;;48.67;39.00;;;;;7.50;100.00;98544.69;6315418;20;3612718;-44
2021/12/25 12:28:02;;;;;;;;;40.33;34.33;;;;;7.52;100.00;98543.63;6317167;20;3598247;-44
2021/12/25 12:30:53;;;;;;;;;37.00;35.00;;;;;7.12;100.00;98546.31;6279846;20;2841027;-44
2021/12/25 12:33:29;;;;;;;;;36.33;36.00;;;;;7.33;100.00;98543.16;6281762;20;2845021;-48
2021/12/25 12:35:58;;;;;;;;;41.00;35.67;;;;;7.20;100.00;98540.47;6319626;20;3608573;-45
2021/12/25 12:38:51;;;;;;;;;54.00;40.67;;;;;6.86;100.00;98552.47;6286786;20;2874317;-44
2021/12/25 12:41:38;;;;;;;;;56.50;42.00;;;;;6.70;100.00;98548.13;6316531;20;2862807;-44
2021/12/25 12:44:28;;;;;;;;;59.50;47.00;;;;;6.74;100.00;98552.31;6288232;20;2852946;-45
2021/12/25 12:47:14;;;;;;;;;48.00;43.00;;;;;7.03;100.00;98550.44;6288339;20;2850373;-44
2021/12/25 12:49:52;;;;;;;;;61.00;46.33;;;;;6.51;100.00;98547.59;6289109;20;3626289;-44